Share

Gettysburg, SD

12:33 CDT le 24 avril 2014 (GMT -0500)
NonFedAWOS GETTYSBURG SD US SUPERAWOS (MK0D8) Alt. 2061 ft | 44.99 °N, 99.95 °W | Change Station
Avis météorologiques actifs: Fire Weather Warning Préavis actif: Public Information Statement

Current weather conditions updated 38 minutes ago

Clear
Ciel dégagé
59 ° F
Paraît 59 ° F
N
22
Vent Variable Vent de ONO
Gusts 0.0 mph
Lever du soleil 6:40 AM
Coucher du soleil 8:36 PM
Lune Lune descendante

Aujourd’hui il est prévu de faire pratiquement la même température qu’hier.

Pression 29.75 pouce
Visibilité 10.0 Miles terrestres
Nuages Ciel dégagé
Point de rosée 28 ° F
Humidité 31%
Précipitations -999.00 pouce
Profondeur de la couche neigeuse Non disponible.
UV 8 sur 16
Pollen 11.30 sur 12
Qualité de l'air Non disponible.
Flu Activity Sporadic
METAR KABR 241653Z AUTO 30011KT 10SM CLR 13/03 A2973 RMK AO2 SLP072 T01330033

More Conditions Fewer Conditions

Pression 29.75 pouce
Visibilité 10.0 Miles terrestres
Nuages Ciel dégagé
Point de rosée 28 ° F
Humidité 31%
Précipitations -999.00 pouce
Profondeur de la couche neigeuse Non disponible.
UV 8 sur 16
Pollen 11.30 sur 12
Qualité de l'air Non disponible.
Flu Activity Sporadic
METAR KABR 241653Z AUTO 30011KT 10SM CLR 13/03 A2973 RMK AO2 SLP072 T01330033

More Conditions Fewer Conditions

10-Day Weather Forecast

Almanac

Astronomie

Apr. 24, 2014 Lever Coucher
Temps réel 06:40 CDT 20:36 CDT
Crépuscule civil 06:08 CDT 21:08 CDT
Crépuscule nautique 05:29 CDT 21:47 CDT
Crépuscule astronomique 04:47 CDT 22:30 CDT
Lune 04:05 CDT 15:42 CDT
Durée de lumière visible 15h 00m
Longueur du jour
13h 56m
Tomorrow will be 2m 53s longer.
Lune descendante, 24% of the Moon is Illuminated
Aujourd'hui
Lune descendante
avr 29
Nouveau
mai 6
Premier quartier
mai 14
Pleine lune
mai 21
Dernier quartier

Extrêmes aujourd'hui

State Highs State Lows

Community

  • Sunset at Apalachicola Bay, Florida
    Sunset at Apalachicola Bay, Florida
  • Clouds mov'n in
    Clouds mov'n in
  • Stacked
    Stacked
  • clouds approaching Red Sox Nation
    clouds approaching Red Sox Nation
  • Balance
    Balance

WunderPhotos

Upload Photos

1,704,678 Photos téléchargées !

Nearby

Épaisseur de neige

Station Depth Altitude
North Rapid Creek 9 in 6130 ft
Blind Park 10 in 6890 ft

Températures des eaux côtières

Lieu Température
Aucun rapport de station

Activité sismique

Ville Distance Mag. Time & Date
No recent earthquake activity has been reported nearby.
Minimum magnitude displayed is 2.5.

Stations météo à proximité

Emplacement de la station Température Point de rosée Humidité Vent Precip. Alt. Mise à jour Type
NonFedAWOS GETTYSBURG , Gettysburg, SD 59 ° F 28 ° F 31% ONO  à  22 mph 0.00 pouce / hr 2061 ft 11:55 AM CDT MADIS
Hoven, SD 62.6 ° F 25 ° F 24% SO  à  6.3 mph 0.00 pouce / hr 1877 ft 12:30 PM CDT Normal

Show More Stations Show Fewer Stations

What do you think?

We're not finished. Please let us know what you like, what you don't like, and what you are still missing.